createdAt,value
2018-11-20T00:00:00.869Z,16.20
2018-11-20T00:01:00.845Z,13.80
2018-11-20T00:02:00.824Z,17.20
2018-11-20T00:03:00.798Z,13.70
2018-11-20T00:04:00.770Z,14.40
2018-11-20T00:05:00.782Z,17.70
2018-11-20T00:06:00.725Z,16.10
2018-11-20T00:07:00.703Z,18.30
2018-11-20T00:08:00.675Z,16.80
2018-11-20T00:09:00.649Z,16.40
2018-11-20T00:10:00.631Z,16.10
2018-11-20T00:11:00.603Z,15.20
2018-11-20T00:12:00.586Z,19.10
2018-11-20T00:13:00.560Z,17.70
2018-11-20T00:14:00.538Z,16.80
2018-11-20T00:15:00.510Z,17.90
2018-11-20T00:16:00.479Z,15.10
2018-11-20T00:17:00.461Z,19.90
2018-11-20T00:18:00.439Z,16.00
2018-11-20T00:19:00.413Z,13.10
2018-11-20T00:20:00.380Z,15.30
2018-11-20T00:21:00.363Z,15.40
2018-11-20T00:22:00.341Z,16.70
2018-11-20T00:23:00.304Z,16.00
2018-11-20T00:24:00.273Z,15.00
2018-11-20T00:25:00.265Z,13.90
2018-11-20T00:26:00.246Z,11.70
2018-11-20T00:27:00.215Z,11.30
2018-11-20T00:28:00.192Z,11.50
2018-11-20T00:29:00.171Z,10.50
2018-11-20T00:30:00.142Z,10.40
2018-11-20T00:31:00.118Z,7.30
2018-11-20T00:32:00.080Z,7.20
2018-11-20T00:33:00.072Z,9.20
2018-11-20T00:34:00.035Z,8.00
2018-11-20T00:35:00.022Z,7.90
2018-11-20T00:36:00.000Z,6.60
2018-11-20T00:36:59.975Z,8.80
2018-11-20T00:37:59.953Z,8.70
2018-11-20T00:38:59.925Z,8.90
2018-11-20T00:39:59.904Z,10.10
2018-11-20T00:40:59.875Z,9.10
2018-11-20T00:41:59.852Z,6.10
2018-11-20T00:42:59.812Z,6.80
2018-11-20T00:43:59.812Z,6.20
2018-11-20T00:44:59.780Z,6.40
2018-11-20T00:45:59.803Z,6.00
2018-11-20T00:46:59.738Z,5.40
2018-11-20T00:47:59.708Z,5.60
2018-11-20T00:48:59.689Z,5.80
2018-11-20T00:49:59.665Z,6.10
2018-11-20T00:50:59.638Z,8.10
2018-11-20T00:51:59.618Z,4.90
2018-11-20T00:52:59.593Z,7.40
2018-11-20T00:53:59.565Z,6.20
2018-11-20T00:54:59.543Z,6.10
2018-11-20T00:55:59.520Z,5.50
2018-11-20T00:56:59.502Z,5.70
2018-11-20T00:57:59.474Z,5.70
2018-11-20T00:58:59.447Z,7.80
2018-11-20T00:59:59.428Z,5.40
2018-11-20T01:00:59.406Z,6.20
2018-11-20T01:01:59.382Z,4.50
2018-11-20T01:02:59.350Z,5.10
2018-11-20T01:03:59.329Z,6.60
2018-11-20T01:04:59.301Z,5.70
2018-11-20T01:05:59.280Z,5.10
2018-11-20T01:06:59.251Z,6.10
2018-11-20T01:07:59.229Z,4.60
2018-11-20T01:08:59.210Z,4.90
2018-11-20T01:09:59.163Z,5.20
2018-11-20T01:10:59.141Z,6.10
2018-11-20T01:11:59.138Z,5.70
2018-11-20T01:12:59.107Z,4.80
2018-11-20T01:13:59.089Z,5.20
2018-11-20T01:14:59.053Z,5.10
2018-11-20T01:15:59.040Z,4.30
2018-11-20T01:16:59.000Z,5.90
2018-11-20T01:17:58.994Z,4.40
2018-11-20T01:18:58.962Z,4.60
2018-11-20T01:19:58.942Z,5.50
2018-11-20T01:20:58.920Z,5.30
2018-11-20T01:21:58.895Z,7.10
2018-11-20T01:22:58.871Z,5.80
2018-11-20T01:23:58.835Z,4.80
2018-11-20T01:24:58.822Z,5.70
2018-11-20T01:25:58.794Z,5.20
2018-11-20T01:26:58.778Z,6.10
2018-11-20T01:27:58.750Z,5.00
2018-11-20T01:28:58.724Z,4.60
2018-11-20T01:29:58.705Z,5.70
2018-11-20T01:30:58.683Z,4.60
2018-11-20T01:31:58.659Z,5.40
2018-11-20T01:32:58.627Z,4.40
2018-11-20T01:33:58.608Z,4.80
2018-11-20T01:34:58.585Z,4.80
2018-11-20T01:35:58.559Z,7.30
2018-11-20T01:36:58.539Z,3.90
2018-11-20T01:37:58.510Z,4.20
2018-11-20T01:38:58.488Z,3.60
2018-11-20T01:39:58.456Z,3.60
2018-11-20T01:40:58.439Z,5.20
2018-11-20T01:41:58.406Z,3.60
2018-11-20T01:42:58.392Z,4.30
2018-11-20T01:43:58.368Z,4.30
2018-11-20T01:44:58.352Z,5.20
2018-11-20T01:45:58.315Z,4.50
2018-11-20T01:46:58.298Z,3.00
2018-11-20T01:47:58.275Z,3.10
2018-11-20T01:48:58.254Z,6.10
2018-11-20T01:49:58.222Z,2.90
2018-11-20T01:50:58.202Z,3.00
2018-11-20T01:51:58.180Z,4.00
2018-11-20T01:52:58.154Z,4.40
2018-11-20T01:53:58.137Z,2.70
2018-11-20T01:54:58.107Z,4.80
2018-11-20T01:55:58.081Z,5.40
2018-11-20T01:56:58.052Z,3.80
2018-11-20T01:57:58.032Z,2.40
2018-11-20T01:58:58.033Z,3.30
2018-11-20T01:59:57.986Z,4.00
2018-11-20T02:00:57.949Z,6.40
2018-11-20T02:01:57.936Z,3.40
2018-11-20T02:02:57.898Z,4.50
2018-11-20T02:03:57.907Z,3.30
2018-11-20T02:04:57.869Z,4.50
2018-11-20T02:05:57.841Z,4.70
2018-11-20T02:06:57.808Z,3.90
2018-11-20T02:07:57.796Z,5.60
2018-11-20T02:08:57.769Z,4.80
2018-11-20T02:09:57.734Z,6.00
2018-11-20T02:10:57.728Z,4.10
2018-11-20T02:11:57.700Z,7.40
2018-11-20T02:12:57.676Z,3.40
2018-11-20T02:13:57.658Z,5.70
2018-11-20T02:14:57.631Z,3.70
2018-11-20T02:15:57.606Z,2.50
2018-11-20T02:16:57.580Z,4.60
2018-11-20T02:17:57.559Z,4.60
2018-11-20T02:18:57.536Z,4.50
2018-11-20T02:19:57.508Z,5.60
2018-11-20T02:20:57.482Z,5.10
2018-11-20T02:21:57.447Z,5.40
2018-11-20T02:22:57.433Z,6.10
2018-11-20T02:23:57.418Z,5.20
2018-11-20T02:24:57.394Z,7.40
2018-11-20T02:25:57.365Z,6.70
2018-11-20T02:26:57.349Z,5.80
2018-11-20T02:27:57.322Z,5.20
2018-11-20T02:28:57.298Z,4.10
2018-11-20T02:29:57.282Z,7.90
2018-11-20T02:30:57.250Z,4.80
2018-11-20T02:31:57.233Z,5.10
2018-11-20T02:32:57.208Z,2.30
2018-11-20T02:33:57.184Z,6.30
2018-11-20T02:34:57.160Z,2.90
2018-11-20T02:35:57.137Z,2.80
2018-11-20T02:36:57.102Z,2.30
2018-11-20T02:37:57.089Z,3.10
2018-11-20T02:38:57.060Z,5.20
2018-11-20T02:39:57.039Z,4.90
2018-11-20T02:40:57.013Z,5.70
2018-11-20T02:41:57.002Z,5.00
2018-11-20T02:42:56.962Z,3.90
2018-11-20T02:43:56.943Z,4.80
2018-11-20T02:44:56.918Z,3.00
2018-11-20T02:45:56.898Z,4.10
2018-11-20T02:46:56.874Z,5.80
2018-11-20T02:47:56.846Z,5.60
2018-11-20T02:48:56.821Z,6.90
2018-11-20T02:49:56.824Z,3.40
2018-11-20T02:50:56.779Z,4.70
2018-11-20T02:51:56.757Z,4.70
2018-11-20T02:52:56.733Z,4.60
2018-11-20T02:53:56.705Z,4.40
2018-11-20T02:54:56.673Z,5.50
2018-11-20T02:55:56.655Z,3.70
2018-11-20T02:56:56.632Z,4.90
2018-11-20T02:57:56.665Z,5.70
2018-11-20T02:58:56.596Z,7.30
2018-11-20T02:59:56.565Z,6.40
2018-11-20T03:00:56.540Z,4.90
2018-11-20T03:01:56.523Z,5.10
2018-11-20T03:02:56.494Z,4.10
2018-11-20T03:03:56.466Z,3.60
2018-11-20T03:04:56.437Z,3.70
2018-11-20T03:05:56.407Z,4.40
2018-11-20T03:06:56.385Z,9.50
2018-11-20T03:07:56.376Z,3.40
2018-11-20T03:08:56.344Z,4.60
2018-11-20T03:09:56.325Z,6.60
2018-11-20T03:10:56.290Z,5.90
2018-11-20T03:11:56.279Z,5.00
2018-11-20T03:12:56.255Z,5.50
2018-11-20T03:13:56.231Z,3.90
2018-11-20T03:14:56.205Z,3.70
2018-11-20T03:15:56.182Z,4.30
2018-11-20T03:16:56.159Z,4.50
2018-11-20T03:17:56.138Z,3.30
2018-11-20T03:18:56.113Z,4.90
2018-11-20T03:19:56.086Z,8.10
2018-11-20T03:20:56.065Z,4.80
2018-11-20T03:21:56.027Z,4.90
2018-11-20T03:22:56.016Z,4.80
2018-11-20T03:23:55.997Z,3.50
2018-11-20T03:24:55.963Z,8.00
2018-11-20T03:25:55.945Z,5.50
2018-11-20T03:26:55.957Z,4.40
2018-11-20T03:27:55.894Z,4.00
2018-11-20T03:28:55.884Z,4.20
2018-11-20T03:29:55.837Z,5.10
2018-11-20T03:30:55.819Z,4.90
2018-11-20T03:31:55.806Z,7.10
2018-11-20T03:32:55.781Z,4.70
2018-11-20T03:33:55.761Z,5.60
2018-11-20T03:34:55.740Z,4.00
2018-11-20T03:35:55.767Z,4.30
2018-11-20T03:36:55.687Z,8.50
2018-11-20T03:37:55.663Z,5.00
2018-11-20T03:38:55.640Z,5.30
2018-11-20T03:39:55.615Z,5.80
2018-11-20T03:40:55.587Z,5.10
2018-11-20T03:41:55.553Z,4.10
2018-11-20T03:42:55.545Z,7.60
2018-11-20T03:43:55.523Z,5.20
2018-11-20T03:44:55.497Z,5.40
2018-11-20T03:45:55.471Z,4.50
2018-11-20T03:46:55.448Z,6.90
2018-11-20T03:47:55.478Z,7.00
2018-11-20T03:48:55.397Z,8.50
2018-11-20T03:49:55.382Z,8.60
2018-11-20T03:50:55.339Z,7.00
2018-11-20T03:51:55.333Z,7.70
2018-11-20T03:52:55.309Z,7.40
2018-11-20T03:53:55.276Z,7.40
2018-11-20T03:54:55.260Z,8.10
2018-11-20T03:55:55.243Z,8.10
2018-11-20T03:56:55.207Z,9.20
2018-11-20T03:57:55.192Z,10.10
2018-11-20T03:58:55.165Z,5.90
2018-11-20T03:59:55.126Z,6.30
2018-11-20T04:00:55.119Z,6.60
2018-11-20T04:01:55.100Z,7.30
2018-11-20T04:02:55.068Z,8.70
2018-11-20T04:03:55.048Z,8.10
2018-11-20T04:04:55.019Z,8.50
2018-11-20T04:05:54.999Z,6.30
2018-11-20T04:06:54.975Z,5.00
2018-11-20T04:07:54.934Z,4.90
2018-11-20T04:08:54.927Z,6.50
2018-11-20T04:09:54.898Z,8.20
2018-11-20T04:10:54.878Z,5.50
2018-11-20T04:11:54.864Z,5.50
2018-11-20T04:12:54.840Z,6.90
2018-11-20T04:13:54.811Z,5.80
2018-11-20T04:14:54.782Z,8.40
2018-11-20T04:15:54.758Z,6.80
2018-11-20T04:16:54.717Z,6.90
2018-11-20T04:17:54.820Z,9.40
2018-11-20T04:18:54.694Z,8.60
2018-11-20T04:19:54.671Z,8.40
2018-11-20T04:20:54.646Z,7.60
2018-11-20T04:21:54.624Z,7.50
2018-11-20T04:22:54.593Z,7.90
2018-11-20T04:23:54.571Z,9.60
2018-11-20T04:24:54.538Z,5.60
2018-11-20T04:25:54.525Z,9.40
2018-11-20T04:26:54.502Z,7.80
2018-11-20T04:27:54.469Z,9.70
2018-11-20T04:28:54.455Z,5.90
2018-11-20T04:29:54.417Z,8.20
2018-11-20T04:30:54.418Z,9.90
2018-11-20T04:31:54.382Z,7.70
2018-11-20T04:32:54.361Z,11.20
2018-11-20T04:33:54.321Z,9.80
2018-11-20T04:34:54.300Z,11.10
2018-11-20T04:35:54.292Z,9.60
2018-11-20T04:36:54.269Z,8.20
2018-11-20T04:37:54.247Z,9.90
2018-11-20T04:38:54.222Z,8.50
2018-11-20T04:39:54.197Z,9.50
2018-11-20T04:40:54.171Z,9.20
2018-11-20T04:41:54.150Z,11.90
2018-11-20T04:42:54.127Z,11.80
2018-11-20T04:43:54.102Z,9.30
2018-11-20T04:44:54.077Z,9.50
2018-11-20T04:45:54.048Z,11.30
2018-11-20T04:46:54.039Z,11.90
2018-11-20T04:47:54.013Z,12.40
2018-11-20T04:48:53.985Z,11.50
2018-11-20T04:49:54.051Z,10.90
2018-11-20T04:50:53.937Z,10.90
2018-11-20T04:51:53.902Z,14.40
2018-11-20T04:52:53.891Z,15.50
2018-11-20T04:53:53.850Z,12.60
2018-11-20T04:54:53.845Z,11.90
2018-11-20T04:55:53.817Z,16.20
2018-11-20T04:56:53.798Z,12.80
2018-11-20T04:57:53.787Z,16.70
2018-11-20T04:58:53.754Z,14.20
2018-11-20T04:59:53.726Z,12.30
2018-11-20T05:00:53.697Z,14.40
2018-11-20T05:01:53.675Z,13.60
2018-11-20T05:02:53.658Z,13.40
2018-11-20T05:03:53.624Z,15.40
2018-11-20T05:04:53.612Z,16.20
2018-11-20T05:05:53.591Z,15.80
2018-11-20T05:06:53.621Z,17.70
2018-11-20T05:07:53.540Z,17.00
2018-11-20T05:08:53.513Z,18.50
2018-11-20T05:09:53.489Z,14.60
2018-11-20T05:10:53.452Z,13.00
2018-11-20T05:11:53.426Z,17.50
2018-11-20T05:12:53.422Z,17.20
2018-11-20T05:13:53.398Z,19.70
2018-11-20T05:14:53.376Z,14.30
2018-11-20T05:15:53.347Z,17.30
2018-11-20T05:16:53.323Z,19.20
2018-11-20T05:17:53.300Z,19.00
2018-11-20T05:18:53.261Z,21.20
2018-11-20T05:19:53.451Z,17.70
2018-11-20T05:20:53.216Z,21.80
2018-11-20T05:21:53.195Z,18.10
2018-11-20T05:22:53.187Z,21.00
2018-11-20T05:23:53.264Z,19.30
2018-11-20T05:24:53.144Z,20.90
2018-11-20T05:25:53.115Z,15.70
2018-11-20T05:26:53.087Z,18.20
2018-11-20T05:27:53.133Z,21.50
2018-11-20T05:28:53.042Z,18.10
2018-11-20T05:29:53.024Z,17.50
2018-11-20T05:30:52.989Z,20.40
2018-11-20T05:31:52.956Z,18.30
2018-11-20T05:32:52.930Z,18.40
2018-11-20T05:33:52.929Z,24.70
2018-11-20T05:34:52.912Z,20.50
2018-11-20T05:35:52.880Z,23.60
2018-11-20T05:36:52.854Z,23.10
2018-11-20T05:37:52.839Z,18.30
2018-11-20T05:38:52.808Z,17.30
2018-11-20T05:39:52.786Z,18.30
2018-11-20T05:40:52.761Z,19.50
2018-11-20T05:41:52.737Z,19.00
2018-11-20T05:42:52.718Z,17.30
2018-11-20T05:43:52.688Z,18.70
2018-11-20T05:44:52.669Z,19.80
2018-11-20T05:45:52.640Z,22.00
2018-11-20T05:46:52.724Z,20.80
2018-11-20T05:47:52.586Z,21.20
2018-11-20T05:48:52.575Z,22.30
2018-11-20T05:49:52.547Z,21.80
2018-11-20T05:50:52.529Z,18.40
2018-11-20T05:51:52.508Z,18.70
2018-11-20T05:52:52.481Z,19.80
2018-11-20T05:53:52.458Z,21.10
2018-11-20T05:54:52.428Z,14.40
2018-11-20T05:55:52.393Z,17.00
2018-11-20T05:56:52.384Z,18.90
2018-11-20T05:57:52.365Z,17.60
2018-11-20T05:58:52.336Z,18.60
2018-11-20T05:59:52.318Z,21.10
2018-11-20T06:00:52.276Z,16.30
2018-11-20T06:01:52.270Z,15.20
2018-11-20T06:02:52.249Z,16.90
2018-11-20T06:03:52.229Z,13.10
2018-11-20T06:04:52.203Z,18.80
2018-11-20T06:05:52.189Z,17.90
2018-11-20T06:06:52.155Z,14.10
2018-11-20T06:07:52.126Z,13.10
2018-11-20T06:08:52.111Z,11.00
2018-11-20T06:09:52.078Z,12.80
2018-11-20T06:10:52.056Z,15.00
2018-11-20T06:11:52.034Z,8.70
2018-11-20T06:12:52.041Z,12.90
2018-11-20T06:13:51.990Z,10.80
2018-11-20T06:14:51.950Z,10.60
2018-11-20T06:15:51.938Z,9.50
2018-11-20T06:16:51.920Z,10.10
2018-11-20T06:17:51.891Z,12.20
2018-11-20T06:18:51.927Z,8.60
2018-11-20T06:19:51.850Z,9.90
2018-11-20T06:20:51.823Z,13.40
2018-11-20T06:21:51.785Z,10.30
2018-11-20T06:22:51.776Z,10.20
2018-11-20T06:23:51.741Z,10.70
2018-11-20T06:24:51.717Z,11.30
2018-11-20T06:25:51.697Z,11.30
2018-11-20T06:26:51.686Z,13.60
2018-11-20T06:27:51.657Z,12.80
2018-11-20T06:28:51.767Z,13.10
2018-11-20T06:29:51.620Z,12.90
2018-11-20T06:30:51.593Z,11.60
2018-11-20T06:31:51.566Z,10.90
2018-11-20T06:32:51.545Z,9.10
2018-11-20T06:33:51.527Z,12.80
2018-11-20T06:34:51.570Z,15.10
2018-11-20T06:35:51.462Z,9.40
2018-11-20T06:36:51.432Z,9.00
2018-11-20T06:37:51.411Z,5.80
2018-11-20T06:38:51.401Z,10.00
2018-11-20T06:39:51.366Z,15.20
2018-11-20T06:40:51.354Z,11.50
2018-11-20T06:41:51.334Z,12.10
2018-11-20T06:42:51.315Z,8.40
2018-11-20T06:43:51.283Z,11.80
2018-11-20T06:44:51.261Z,8.80
2018-11-20T06:45:51.237Z,8.20
2018-11-20T06:46:51.218Z,10.60
2018-11-20T06:47:51.192Z,7.00
2018-11-20T06:48:51.163Z,8.30
2018-11-20T06:49:51.141Z,9.60
2018-11-20T06:50:51.126Z,9.50
2018-11-20T06:51:51.086Z,11.00
2018-11-20T06:52:51.159Z,6.70
2018-11-20T06:53:51.050Z,6.00
2018-11-20T06:54:51.031Z,11.10
2018-11-20T06:55:50.997Z,12.30
2018-11-20T06:56:50.979Z,8.20
2018-11-20T06:57:50.955Z,9.30
2018-11-20T06:58:50.945Z,10.00
2018-11-20T06:59:50.893Z,8.40
2018-11-20T07:00:50.882Z,13.80
2018-11-20T07:01:50.845Z,9.40
2018-11-20T07:02:50.846Z,7.60
2018-11-20T07:03:50.812Z,9.90
2018-11-20T07:04:50.769Z,7.80
2018-11-20T07:05:50.765Z,9.20
2018-11-20T07:06:50.742Z,8.10
2018-11-20T07:07:50.924Z,7.20
2018-11-20T07:08:50.819Z,8.60
2018-11-20T07:09:50.672Z,9.20
2018-11-20T07:10:50.640Z,7.00
2018-11-20T07:11:50.620Z,10.40
2018-11-20T07:12:50.596Z,13.10
2018-11-20T07:13:50.577Z,11.30
2018-11-20T07:14:50.531Z,10.50
2018-11-20T07:15:50.782Z,6.40
2018-11-20T07:16:50.494Z,8.20
2018-11-20T07:17:50.479Z,7.80
2018-11-20T07:18:50.441Z,10.00
2018-11-20T07:19:50.419Z,10.90
2018-11-20T07:20:50.402Z,11.50
2018-11-20T07:21:50.367Z,8.30
2018-11-20T07:22:50.360Z,9.70
2018-11-20T07:23:50.334Z,11.20
2018-11-20T07:24:50.431Z,10.30
2018-11-20T07:25:50.271Z,8.20
2018-11-20T07:26:50.242Z,10.40
2018-11-20T07:27:50.245Z,11.20
2018-11-20T07:28:50.202Z,10.70
2018-11-20T07:29:50.197Z,11.10
2018-11-20T07:30:50.358Z,9.20
2018-11-20T07:31:50.162Z,9.20
2018-11-20T07:32:50.115Z,11.90
2018-11-20T07:33:50.100Z,14.30
2018-11-20T07:34:50.109Z,13.10
2018-11-20T07:35:50.044Z,11.40
2018-11-20T07:36:50.170Z,13.50
2018-11-20T07:37:49.997Z,10.50
2018-11-20T07:38:49.972Z,11.90
2018-11-20T07:39:49.952Z,11.00
2018-11-20T07:40:49.925Z,11.30
2018-11-20T07:41:49.900Z,12.30
2018-11-20T07:42:49.882Z,12.20
2018-11-20T07:43:50.079Z,18.30
2018-11-20T07:44:49.827Z,12.20
2018-11-20T07:45:49.813Z,14.00
2018-11-20T07:46:49.785Z,12.60
2018-11-20T07:47:49.768Z,14.90
2018-11-20T07:48:49.733Z,11.40
2018-11-20T07:49:49.703Z,13.00
2018-11-20T07:50:49.687Z,10.50
2018-11-20T07:51:49.663Z,11.30
2018-11-20T07:52:49.643Z,15.00
2018-11-20T07:53:49.614Z,13.90
2018-11-20T07:54:49.583Z,16.60
2018-11-20T07:55:49.689Z,14.60
2018-11-20T07:56:49.545Z,14.60
2018-11-20T07:57:49.524Z,13.90
2018-11-20T07:58:49.508Z,16.10
2018-11-20T07:59:49.477Z,13.80
2018-11-20T08:00:49.450Z,11.90
2018-11-20T08:01:49.432Z,13.90
2018-11-20T08:02:49.407Z,9.60
2018-11-20T08:03:49.363Z,12.60
2018-11-20T08:04:49.353Z,11.50
2018-11-20T08:05:49.316Z,9.30
2018-11-20T08:06:49.310Z,14.40
2018-11-20T08:07:49.282Z,11.30
2018-11-20T08:08:49.254Z,13.30
2018-11-20T08:09:49.235Z,16.30
2018-11-20T08:10:49.215Z,10.20
2018-11-20T08:11:49.186Z,15.60
2018-11-20T08:12:49.167Z,12.70
2018-11-20T08:13:49.137Z,15.20
2018-11-20T08:14:49.114Z,8.70
2018-11-20T08:15:49.111Z,9.20
2018-11-20T08:16:49.053Z,16.20
2018-11-20T08:17:49.043Z,14.00
2018-11-20T08:18:49.016Z,15.70
2018-11-20T08:19:48.995Z,15.00
2018-11-20T08:20:48.971Z,10.30
2018-11-20T08:21:48.950Z,14.10
2018-11-20T08:22:48.910Z,14.20
2018-11-20T08:23:48.897Z,15.10
2018-11-20T08:24:48.874Z,13.20
2018-11-20T08:25:48.890Z,13.90
2018-11-20T08:26:48.830Z,7.60
2018-11-20T08:27:48.806Z,9.90
2018-11-20T08:28:48.806Z,15.10
2018-11-20T08:29:48.755Z,13.60
2018-11-20T08:30:48.737Z,11.50
2018-11-20T08:31:48.691Z,11.70
2018-11-20T08:32:48.672Z,11.50
2018-11-20T08:33:48.734Z,18.60
2018-11-20T08:34:48.639Z,12.60
2018-11-20T08:35:48.617Z,16.60
2018-11-20T08:36:48.591Z,10.00
2018-11-20T08:37:48.569Z,13.50
2018-11-20T08:38:48.541Z,9.80
2018-11-20T08:39:48.511Z,13.60
2018-11-20T08:40:48.494Z,14.20
2018-11-20T08:41:48.469Z,13.00
2018-11-20T08:42:48.446Z,14.00
2018-11-20T08:43:48.409Z,19.20
2018-11-20T08:44:48.388Z,18.70
2018-11-20T08:45:48.376Z,10.20
2018-11-20T08:46:48.340Z,15.30
2018-11-20T08:47:48.470Z,10.00
2018-11-20T08:48:48.307Z,12.30
2018-11-20T08:49:48.281Z,17.40
2018-11-20T08:50:48.263Z,14.00
2018-11-20T08:51:48.243Z,14.70
2018-11-20T08:52:48.218Z,19.00
2018-11-20T08:53:48.344Z,19.10
2018-11-20T08:54:48.160Z,13.60
2018-11-20T08:55:48.142Z,19.90
2018-11-20T08:56:48.116Z,14.00
2018-11-20T08:57:48.088Z,19.30
2018-11-20T08:58:48.054Z,16.90
2018-11-20T08:59:48.048Z,16.10
2018-11-20T09:00:48.020Z,15.30
2018-11-20T09:01:47.997Z,13.10
2018-11-20T09:02:48.097Z,14.20
2018-11-20T09:03:47.947Z,18.80
2018-11-20T09:04:47.930Z,18.60
2018-11-20T09:05:47.900Z,19.00
2018-11-20T09:06:47.860Z,18.10
2018-11-20T09:07:47.853Z,20.50
2018-11-20T09:08:47.813Z,16.70
2018-11-20T09:09:47.820Z,16.60
2018-11-20T09:10:47.793Z,17.80
2018-11-20T09:11:47.766Z,20.30
2018-11-20T09:12:47.745Z,19.90
2018-11-20T09:13:47.712Z,17.00
2018-11-20T09:14:47.686Z,21.60
2018-11-20T09:15:47.669Z,18.80
2018-11-20T09:16:47.643Z,20.80
2018-11-20T09:17:47.687Z,22.70
2018-11-20T09:18:47.597Z,21.20
2018-11-20T09:19:47.571Z,21.20
2018-11-20T09:20:47.545Z,24.80
2018-11-20T09:21:47.525Z,21.70
2018-11-20T09:22:47.493Z,21.40
2018-11-20T09:23:47.457Z,21.80
2018-11-20T09:24:47.451Z,22.20
2018-11-20T09:25:47.595Z,26.40
2018-11-20T09:26:47.403Z,25.30
2018-11-20T09:27:47.434Z,26.40
2018-11-20T09:28:47.340Z,28.00
2018-11-20T09:29:47.337Z,23.80
2018-11-20T09:30:47.303Z,26.40
2018-11-20T09:31:47.286Z,25.30
2018-11-20T09:32:47.254Z,26.70
2018-11-20T09:33:47.243Z,26.80
2018-11-20T09:34:47.258Z,29.40
2018-11-20T09:35:47.283Z,25.80
2018-11-20T09:36:47.159Z,25.80
2018-11-20T09:37:47.144Z,29.70
2018-11-20T09:38:47.120Z,29.90
2018-11-20T09:39:47.098Z,30.70
2018-11-20T09:40:47.076Z,30.70
2018-11-20T09:41:47.055Z,29.90
2018-11-20T09:42:47.031Z,29.60
2018-11-20T09:43:47.002Z,32.70
2018-11-20T09:44:46.985Z,28.40
2018-11-20T09:45:46.957Z,29.40
2018-11-20T09:46:46.975Z,27.80
2018-11-20T09:47:46.912Z,26.80
2018-11-20T09:48:46.892Z,27.20
2018-11-20T09:49:46.866Z,28.40
2018-11-20T09:50:46.847Z,30.10
2018-11-20T09:51:46.823Z,31.00
2018-11-20T09:52:46.896Z,24.20
2018-11-20T09:53:46.770Z,26.40
2018-11-20T09:54:46.736Z,26.20
2018-11-20T09:55:46.723Z,31.50
2018-11-20T09:56:46.702Z,26.60
2018-11-20T09:57:46.688Z,31.10
2018-11-20T09:58:46.646Z,32.10
2018-11-20T09:59:46.706Z,25.50
2018-11-20T10:00:46.611Z,27.10
2018-11-20T10:01:46.595Z,28.10
2018-11-20T10:02:46.568Z,26.60
2018-11-20T10:03:46.576Z,30.40
2018-11-20T10:04:46.520Z,29.70
2018-11-20T10:05:46.479Z,27.60
2018-11-20T10:06:46.479Z,26.10
2018-11-20T10:07:46.438Z,32.80
2018-11-20T10:08:46.438Z,32.30
2018-11-20T10:09:46.403Z,30.10
2018-11-20T10:10:46.391Z,27.60
2018-11-20T10:11:46.366Z,29.80
2018-11-20T10:12:46.345Z,26.10
2018-11-20T10:13:46.352Z,25.80
2018-11-20T10:14:46.402Z,25.70
2018-11-20T10:15:46.272Z,32.10
2018-11-20T10:16:46.244Z,26.30
2018-11-20T10:17:46.225Z,29.90
2018-11-20T10:18:46.197Z,31.80
2018-11-20T10:19:46.163Z,28.30
2018-11-20T10:20:46.153Z,30.90
2018-11-20T10:21:46.133Z,29.60
2018-11-20T10:22:46.112Z,27.20
2018-11-20T10:23:46.145Z,26.50
2018-11-20T10:24:46.156Z,33.10
2018-11-20T10:25:46.343Z,30.50
2018-11-20T10:26:46.022Z,30.40
2018-11-20T10:27:45.997Z,28.80
2018-11-20T10:28:45.972Z,27.90
2018-11-20T10:29:45.954Z,29.10
2018-11-20T10:30:45.932Z,29.70
2018-11-20T10:31:45.906Z,28.90
2018-11-20T10:32:45.883Z,28.60
2018-11-20T10:33:45.869Z,31.90
2018-11-20T10:34:45.924Z,29.80
2018-11-20T10:35:45.805Z,28.70
2018-11-20T10:36:45.794Z,28.10
2018-11-20T10:37:45.772Z,26.60
2018-11-20T10:38:45.748Z,28.50
2018-11-20T10:39:45.724Z,28.50
2018-11-20T10:40:45.704Z,27.40
2018-11-20T10:41:45.683Z,33.40
2018-11-20T10:42:45.646Z,34.10
2018-11-20T10:43:45.637Z,26.90
2018-11-20T10:44:45.597Z,31.20
2018-11-20T10:45:45.588Z,31.60
2018-11-20T10:46:45.704Z,32.50
2018-11-20T10:47:45.543Z,30.30
2018-11-20T10:48:45.531Z,34.60
2018-11-20T10:49:45.509Z,29.40
2018-11-20T10:50:45.481Z,36.00
2018-11-20T10:51:45.457Z,29.60
2018-11-20T10:52:45.472Z,33.70
2018-11-20T10:53:45.414Z,35.00
2018-11-20T10:54:45.390Z,31.80
2018-11-20T10:55:45.372Z,33.00
2018-11-20T10:56:45.346Z,30.40
2018-11-20T10:57:45.310Z,32.30
2018-11-20T10:58:45.285Z,34.00
2018-11-20T10:59:45.344Z,28.40
2018-11-20T11:00:45.262Z,34.00
2018-11-20T11:01:45.236Z,26.70
2018-11-20T11:02:45.209Z,29.10
2018-11-20T11:03:45.181Z,32.00
2018-11-20T11:04:45.201Z,31.20
2018-11-20T11:05:45.145Z,28.80
2018-11-20T11:06:45.383Z,30.30
2018-11-20T11:07:45.273Z,25.80
2018-11-20T11:08:45.094Z,28.90
2018-11-20T11:09:45.064Z,29.40
2018-11-20T11:10:45.048Z,28.60
2018-11-20T11:11:45.011Z,31.90
2018-11-20T11:12:45.069Z,25.40
2018-11-20T11:13:44.977Z,30.10
2018-11-20T11:14:45.137Z,27.80
2018-11-20T11:15:44.936Z,29.20
2018-11-20T11:16:44.911Z,31.70
2018-11-20T11:17:44.898Z,27.10
2018-11-20T11:18:44.871Z,29.80
2018-11-20T11:19:44.843Z,29.80
2018-11-20T11:20:44.848Z,29.50
2018-11-20T11:22:44.776Z,29.60
2018-11-20T11:23:44.761Z,28.80
2018-11-20T11:24:44.841Z,28.10
2018-11-20T11:25:44.717Z,27.40
2018-11-20T11:26:44.695Z,28.20
2018-11-20T11:27:44.676Z,24.40
2018-11-20T11:28:44.650Z,25.30
2018-11-20T11:29:44.633Z,25.90
2018-11-20T11:30:44.616Z,26.90
2018-11-20T11:31:44.589Z,26.50
2018-11-20T11:32:44.556Z,28.70
2018-11-20T11:33:44.542Z,24.20
2018-11-20T11:34:44.524Z,29.50
2018-11-20T11:35:44.503Z,26.60
2018-11-20T11:36:44.480Z,26.60
2018-11-20T11:37:44.467Z,23.30
2018-11-20T11:38:44.448Z,26.70
2018-11-20T11:39:44.401Z,26.00
2018-11-20T11:40:44.396Z,24.40
2018-11-20T11:41:44.529Z,25.50
2018-11-20T11:42:44.363Z,21.00
2018-11-20T11:43:44.332Z,21.90
2018-11-20T11:44:44.315Z,23.90
2018-11-20T11:45:44.287Z,22.70
2018-11-20T11:46:44.269Z,25.80
2018-11-20T11:47:44.243Z,24.90
2018-11-20T11:48:44.217Z,20.90
2018-11-20T11:49:44.187Z,21.30
2018-11-20T11:50:44.178Z,23.30
2018-11-20T11:51:44.153Z,20.80
2018-11-20T11:52:44.133Z,23.30
2018-11-20T11:53:44.121Z,21.00
2018-11-20T11:54:44.113Z,20.70
2018-11-20T11:55:44.072Z,20.80
2018-11-20T11:56:44.057Z,17.90
2018-11-20T11:57:44.033Z,16.80
2018-11-20T11:58:44.008Z,18.40
2018-11-20T11:59:43.987Z,18.80
2018-11-20T12:00:43.953Z,19.20
2018-11-20T12:03:43.564Z,17.20
2018-11-20T12:04:43.536Z,17.50
2018-11-20T12:05:43.508Z,18.20
2018-11-20T12:06:43.496Z,16.40
2018-11-20T12:07:47.150Z,17.00
2018-11-20T12:08:43.455Z,19.70
2018-11-20T12:09:43.437Z,19.80
2018-11-20T12:10:43.422Z,17.80
2018-11-20T12:11:43.374Z,16.90
2018-11-20T12:12:43.354Z,17.00
2018-11-20T12:13:43.362Z,19.60
2018-11-20T12:14:43.326Z,17.90
2018-11-20T12:15:43.298Z,17.40
2018-11-20T12:16:43.285Z,22.20
2018-11-20T12:17:43.259Z,20.60
2018-11-20T12:18:43.236Z,21.90
2018-11-20T12:19:43.210Z,17.30
2018-11-20T12:20:43.512Z,18.90
2018-11-20T12:21:43.177Z,17.70
2018-11-20T12:22:43.150Z,21.30
2018-11-20T12:23:43.124Z,18.50
2018-11-20T12:24:43.113Z,16.60
2018-11-20T12:25:43.072Z,21.00
2018-11-20T12:26:43.064Z,18.60
2018-11-20T12:27:43.044Z,18.70
2018-11-20T12:28:43.025Z,15.90
2018-11-20T12:29:43.010Z,19.90
2018-11-20T12:30:42.978Z,21.40
2018-11-20T12:31:43.182Z,22.40
2018-11-20T12:32:42.950Z,22.30
2018-11-20T12:33:42.914Z,26.00
2018-11-20T12:34:42.891Z,18.80
2018-11-20T12:35:42.871Z,20.70
2018-11-20T12:36:42.842Z,16.70
2018-11-20T12:37:43.727Z,19.90
2018-11-20T12:38:43.420Z,15.70
2018-11-20T12:39:42.769Z,17.80
2018-11-20T12:40:42.746Z,14.10
2018-11-20T12:41:44.409Z,13.80
2018-11-20T12:42:42.723Z,16.00
2018-11-20T12:43:42.701Z,14.20
2018-11-20T12:44:42.679Z,15.10
2018-11-20T12:45:42.655Z,16.80
2018-11-20T12:46:42.635Z,16.30
2018-11-20T12:47:42.975Z,14.30
2018-11-20T12:48:42.590Z,15.70
2018-11-20T12:49:42.573Z,14.50
2018-11-20T12:50:42.551Z,15.80
2018-11-20T12:51:42.533Z,15.70
2018-11-20T12:52:43.578Z,12.90
2018-11-20T12:53:42.489Z,10.70
2018-11-20T12:54:42.465Z,12.20
2018-11-20T12:55:42.445Z,12.20
2018-11-20T12:56:42.427Z,12.20
2018-11-20T12:57:42.402Z,13.30
2018-11-20T12:58:42.385Z,13.00
2018-11-20T12:59:42.360Z,13.20
2018-11-20T13:00:42.339Z,12.90
2018-11-20T13:01:42.314Z,14.50
2018-11-20T13:02:42.286Z,11.70
2018-11-20T13:03:42.279Z,15.60
2018-11-20T13:04:42.257Z,12.10